Time;durP1;ratioP1;P1;durP2;ratioP2;P2;SDS_P1;SDS_P2;PMS_P1;PMS_P2;Temp;Humidity;BMP_temperature;BMP_pressure;BME280_temperature;BME280_humidity;BME280_pressure;Samples;Min_cycle;Max_cycle;Signal;HPM_P1;HPM_P2
2022/10/27 00:00:40;;;;;;;11.65;4.20;;;13.40;99.90;;;;;;6047028;23;20022;-83
2022/10/27 00:03:07;;;;;;;8.60;3.90;;;;;;;;;;6070604;23;20097;-84
2022/10/27 00:05:33;;;;;;;12.20;4.30;;;;;;;;;;6071418;23;20101;-83
2022/10/27 00:07:59;;;;;;;7.47;4.15;;;;;;;;;;6024083;23;20515;-84
2022/10/27 00:10:25;;;;;;;10.00;4.80;;;;;;;;;;6097192;23;20014;-81
2022/10/27 00:12:51;;;;;;;11.45;4.60;;;;;;;;;;6070793;23;20018;-83
2022/10/27 00:15:17;;;;;;;17.20;4.35;;;;;;;;;;6071218;23;20026;-84
2022/10/27 00:17:43;;;;;;;6.47;3.65;;;;;;;;;;6046443;23;20022;-83
2022/10/27 00:20:10;;;;;;;7.68;3.70;;;;;;;;;;6071257;23;20019;-83
2022/10/27 00:22:36;;;;;;;14.60;3.63;;;;;;;;;;6071156;23;20034;-83
2022/10/27 00:25:02;;;;;;;8.50;4.70;;;;;;;;;;6070392;23;20022;-83
2022/10/27 00:27:28;;;;;;;15.48;4.63;;;;;;;;;;6047015;23;20018;-81
2022/10/27 00:29:54;;;;;;;11.15;4.22;;;;;;;;;;6047051;23;20086;-83
2022/10/27 00:32:20;;;;;;;15.88;4.18;;;;;;;;;;6046829;23;20026;-81
2022/10/27 00:34:46;;;;;;;8.45;4.07;;;;;;;;;;6070325;23;20050;-81
2022/10/27 00:37:12;;;;;;;15.48;3.97;;;;;;;;;;6070927;23;20463;-81
2022/10/27 00:39:38;;;;;;;18.00;4.55;;;;;;;;;;6047229;23;20019;-83
2022/10/27 00:42:05;;;;;;;11.30;4.55;;;;;;;;;;6071009;23;20018;-81
2022/10/27 00:44:38;;;;;;;15.00;4.38;;;;;;;;;;6046615;23;20026;-81
2022/10/27 00:47:04;;;;;;;;;;;;;;;;;;6047207;23;20041;-81
2022/10/27 00:49:34;;;;;;;12.65;4.28;;;;;;;;;;6070763;23;20487;-82
2022/10/27 00:52:03;;;;;;;6.85;4.15;;;;;;;;;;6070805;23;20018;-80
2022/10/27 00:54:32;;;;;;;12.70;5.40;;;;;;;;;;6070455;23;20460;-81
2022/10/27 00:56:58;;;;;;;8.65;4.75;;;;;;;;;;6070375;23;20023;-81
2022/10/27 00:59:24;;;;;;;13.13;5.10;;;;;;;;;;6046703;23;20489;-81
2022/10/27 01:01:51;;;;;;;11.32;5.50;;;;;;;;;;6070855;23;20014;-81
2022/10/27 01:04:19;;;;;;;13.00;5.05;;;;;;;;;;6070525;23;20022;-81
2022/10/27 01:06:45;;;;;;;15.75;5.63;;;;;;;;;;6046413;23;20018;-81
2022/10/27 01:09:12;;;;;;;10.65;4.97;;;;;;;;;;6046879;23;20046;-81
2022/10/27 01:11:38;;;;;;;14.07;5.65;;;;;;;;;;6070692;23;20071;-81
2022/10/27 01:14:04;;;;;;;8.40;5.72;;;;;;;;;;6070557;23;20022;-81
2022/10/27 01:16:47;;;;;;;17.27;5.88;;;13.10;99.90;;;;;;6070103;23;20074;-81
2022/10/27 01:19:42;;;;;;;11.30;6.70;;;13.00;99.90;;;;;;6046622;23;20026;-81
2022/10/27 01:22:11;;;;;;;9.15;6.40;;;;;;;;;;6071085;23;20253;-82
2022/10/27 01:24:40;;;;;;;16.20;6.07;;;;;;;;;;6070879;23;20557;-81
2022/10/27 01:27:41;;;;;;;14.32;6.57;;;13.00;99.90;;;;;;6070498;23;20467;-82
2022/10/27 01:30:23;;;;;;;9.95;5.53;;;;;;;;;;6071564;23;20351;-82
2022/10/27 01:33:16;;;;;;;9.18;5.82;;;13.00;99.90;;;;;;6046682;23;20027;-83
2022/10/27 01:36:02;;;;;;;14.02;6.82;;;12.80;99.90;;;;;;6047056;23;20023;-82
2022/10/27 01:38:31;;;;;;;14.88;6.30;;;12.90;99.90;;;;;;6046467;23;20018;-82
2022/10/27 01:41:00;;;;;;;17.48;6.90;;;12.90;99.90;;;;;;6047267;23;20022;-82
2022/10/27 01:43:29;;;;;;;25.90;7.35;;;12.80;99.90;;;;;;6096514;23;20023;-81
2022/10/27 01:45:55;;;;;;;17.55;7.13;;;12.90;99.90;;;;;;6070620;23;20018;-82
2022/10/27 01:48:22;;;;;;;15.85;7.78;;;;;;;;;;6046150;23;20018;-83
2022/10/27 01:50:48;;;;;;;16.73;7.68;;;;;;;;;;6046334;23;20467;-81
2022/10/27 01:53:14;;;;;;;13.45;7.80;;;;;;;;;;6070242;23;20074;-82
2022/10/27 01:55:46;;;;;;;18.63;7.82;;;;;;;;;;6070485;23;20021;-82
2022/10/27 01:58:27;;;;;;;11.60;7.40;;;;;;;;;;6069998;23;20101;-81
2022/10/27 02:01:12;;;;;;;15.00;6.95;;;13.10;99.90;;;;;;6045980;23;20015;-80
2022/10/27 02:03:43;;;;;;;24.10;8.93;;;12.90;99.90;;;;;;6046524;23;20121;-82
2022/10/27 02:06:34;;;;;;;18.42;9.23;;;13.10;99.90;;;;;;6046503;23;20014;-83
2022/10/27 02:09:03;;;;;;;11.07;7.53;;;;;;;;;;6046008;23;20061;-81
2022/10/27 02:11:30;;;;;;;12.23;7.85;;;13.20;99.90;;;;;;6045678;23;20097;-81
2022/10/27 02:13:59;;;;;;;25.15;8.90;;;;;;;;;;6070374;23;20347;-82
2022/10/27 02:16:28;;;;;;;17.48;8.95;;;;;;;;;;6046243;23;20029;-82
2022/10/27 02:18:58;;;;;;;13.27;8.23;;;;;;;;;;6070099;23;20018;-82
2022/10/27 02:21:24;;;;;;;17.73;9.95;;;;;;;;;;6046054;23;20348;-82
2022/10/27 02:23:51;;;;;;;19.02;10.13;;;13.00;99.90;;;;;;6045971;23;20073;-81
2022/10/27 02:26:17;;;;;;;20.35;9.57;;;;;;;;;;6046242;23;20210;-81
2022/10/27 02:28:47;;;;;;;16.33;8.95;;;;;;;;;;6045854;23;20452;-82
2022/10/27 02:31:14;;;;;;;21.33;9.50;;;;;;;;;;6069649;23;20097;-82
2022/10/27 02:33:40;;;;;;;20.92;9.57;;;;;;;;;;6069728;23;20042;-83
2022/10/27 02:36:06;;;;;;;13.32;9.43;;;;;;;;;;6070076;23;20018;-83
2022/10/27 02:38:32;;;;;;;13.77;9.05;;;;;;;;;;6070156;23;20018;-83
2022/10/27 02:40:58;;;;;;;15.07;9.27;;;;;;;;;;6069647;23;20090;-83
2022/10/27 02:43:24;;;;;;;13.77;8.65;;;;;;;;;;6069400;23;20117;-83
2022/10/27 02:45:50;;;;;;;17.67;9.10;;;;;;;;;;6069552;23;20073;-82
2022/10/27 02:48:16;;;;;;;27.45;9.10;;;;;;;;;;6045990;23;20029;-82
2022/10/27 02:50:42;;;;;;;18.70;9.10;;;;;;;;;;6045702;23;20456;-82
2022/10/27 02:53:08;;;;;;;16.27;9.10;;;;;;;;;;6045449;23;20057;-82
2022/10/27 02:55:34;;;;;;;15.18;9.52;;;;;;;;;;6069998;23;20018;-81
2022/10/27 02:58:00;;;;;;;16.52;9.32;;;;;;;;;;6069921;23;20022;-80
2022/10/27 03:00:26;;;;;;;17.95;9.10;;;;;;;;;;6070027;23;20105;-83
2022/10/27 03:02:52;;;;;;;11.85;9.00;;;;;;;;;;6070008;23;20022;-82
2022/10/27 03:05:18;;;;;;;18.35;9.50;;;;;;;;;;6045281;23;20026;-82
2022/10/27 03:07:45;;;;;;;14.48;8.73;;;;;;;;;;6069996;23;20015;-82
2022/10/27 03:10:11;;;;;;;14.02;9.63;;;;;;;;;;6046061;23;20081;-82
2022/10/27 03:12:37;;;;;;;13.18;9.73;;;;;;;;;;6069654;23;20014;-82
2022/10/27 03:15:03;;;;;;;18.52;9.23;;;;;;;;;;6045638;23;20025;-81
2022/10/27 03:17:29;;;;;;;15.13;8.30;;;;;;;;;;6069736;23;20089;-81
2022/10/27 03:19:55;;;;;;;20.05;9.35;;;;;;;;;;6069800;23;20046;-81
2022/10/27 03:22:21;;;;;;;20.25;8.60;;;;;;;;;;6069982;23;20034;-81
2022/10/27 03:24:47;;;;;;;16.45;8.60;;;;;;;;;;6045307;23;20092;-82
2022/10/27 03:27:13;;;;;;;17.58;8.85;;;;;;;;;;6069778;23;20440;-82
2022/10/27 03:29:39;;;;;;;19.52;8.98;;;;;;;;;;6045882;23;20027;-82
2022/10/27 03:32:05;;;;;;;21.60;8.73;;;;;;;;;;6047734;23;20073;-82
2022/10/27 03:34:31;;;;;;;18.33;8.57;;;;;;;;;;6098420;23;20021;-83
2022/10/27 03:36:57;;;;;;;12.70;8.90;;;;;;;;;;6098081;23;20074;-82
2022/10/27 03:39:23;;;;;;;15.68;9.25;;;;;;;;;;6098784;23;20026;-83
2022/10/27 03:41:49;;;;;;;14.30;8.55;;;;;;;;;;6098836;23;20096;-84
2022/10/27 03:44:15;;;;;;;14.68;8.25;;;;;;;;;;6098471;23;20022;-82
2022/10/27 03:46:41;;;;;;;14.68;7.97;;;;;;;;;;6098054;23;20014;-83
2022/10/27 03:49:07;;;;;;;12.73;8.20;;;;;;;;;;6098525;23;20108;-82
2022/10/27 03:51:33;;;;;;;16.85;8.30;;;;;;;;;;6098964;23;20021;-83
2022/10/27 03:53:59;;;;;;;17.77;8.85;;;;;;;;;;6100216;23;20071;-83
2022/10/27 03:56:25;;;;;;;15.65;8.10;;;;;;;;;;6099943;23;20022;-81
2022/10/27 03:58:51;;;;;;;11.65;7.60;;;;;;;;;;6100164;23;20026;-82
2022/10/27 04:01:17;;;;;;;18.05;8.35;;;;;;;;;;6100272;23;20037;-82
2022/10/27 04:03:43;;;;;;;21.35;8.65;;;;;;;;;;6100269;23;20025;-83
2022/10/27 04:06:09;;;;;;;12.57;8.10;;;;;;;;;;6099811;23;20018;-82
2022/10/27 04:08:35;;;;;;;18.05;8.20;;;;;;;;;;6099531;23;20022;-83
2022/10/27 04:11:01;;;;;;;17.02;8.43;;;;;;;;;;6100023;23;20010;-83
2022/10/27 04:13:27;;;;;;;17.13;8.60;;;;;;;;;;6099884;23;20467;-81
2022/10/27 04:15:53;;;;;;;15.90;7.53;;;;;;;;;;6100189;23;20482;-82
2022/10/27 04:18:19;;;;;;;18.52;8.55;;;;;;;;;;6126068;23;20033;-83
2022/10/27 04:20:45;;;;;;;13.70;7.80;;;;;;;;;;6099712;23;20024;-82
2022/10/27 04:23:11;;;;;;;12.82;7.85;;;;;;;;;;6099252;23;20021;-82
2022/10/27 04:25:37;;;;;;;16.80;8.65;;;;;;;;;;6100146;23;20072;-82
2022/10/27 04:28:04;;;;;;;18.55;8.48;;;;;;;;;;6099945;23;20149;-82
2022/10/27 04:30:30;;;;;;;14.60;7.53;;;;;;;;;;6099978;23;20455;-84
2022/10/27 04:32:56;;;;;;;15.80;9.00;;;;;;;;;;6099744;23;20022;-82
2022/10/27 04:35:22;;;;;;;19.92;9.38;;;;;;;;;;6099672;23;20422;-84
2022/10/27 04:37:48;;;;;;;15.70;10.52;;;;;;;;;;6099880;23;20021;-83
2022/10/27 04:40:14;;;;;;;19.70;9.80;;;;;;;;;;6076028;23;20029;-84
2022/10/27 04:42:50;;;;;;;16.65;8.18;;;;;;;;;;6100327;23;20072;-82
2022/10/27 04:45:16;;;;;;;14.05;8.13;;;;;;;;;;6099562;23;20057;-83
2022/10/27 04:47:43;;;;;;;14.60;9.02;;;;;;;;;;6099277;23;20018;-82
2022/10/27 04:50:09;;;;;;;13.77;9.05;;;;;;;;;;6099954;23;20036;-83
2022/10/27 04:52:35;;;;;;;16.05;8.27;;;;;;;;;;6100239;23;20080;-83
2022/10/27 04:55:01;;;;;;;15.23;9.55;;;;;;;;;;6100264;23;20018;-83
2022/10/27 04:57:28;;;;;;;15.00;8.55;;;;;;;;;;6098128;23;20026;-82
2022/10/27 04:59:54;;;;;;;22.27;10.18;;;;;;;;;;6099561;23;20018;-82
2022/10/27 05:02:20;;;;;;;13.70;8.80;;;;;;;;;;6075769;23;20022;-82
2022/10/27 05:04:46;;;;;;;16.48;8.60;;;;;;;;;;6098789;23;20037;-80
2022/10/27 05:07:12;;;;;;;16.00;9.68;;;;;;;;;;6099435;23;20462;-80
2022/10/27 05:09:38;;;;;;;18.58;10.55;;;;;;;;;;6099236;23;20014;-82
2022/10/27 05:12:04;;;;;;;18.77;9.45;;;;;;;;;;6075401;23;20014;-82
2022/10/27 05:14:30;;;;;;;17.60;9.75;;;;;;;;;;6099350;23;20026;-82
2022/10/27 05:16:56;;;;;;;13.82;9.65;;;;;;;;;;6099708;23;20013;-83
2022/10/27 05:19:22;;;;;;;14.48;8.95;;;;;;;;;;6099609;23;20022;-83
2022/10/27 05:21:48;;;;;;;17.25;10.27;;;;;;;;;;6099123;23;20022;-84
2022/10/27 05:24:15;;;;;;;21.67;11.05;;;;;;;;;;6099439;23;20014;-82
2022/10/27 05:26:41;;;;;;;17.13;9.98;;;;;;;;;;6075674;23;20170;-84
2022/10/27 05:29:08;;;;;;;12.93;9.70;;;13.20;99.90;;;;;;6099431;23;20024;-83
2022/10/27 05:31:34;;;;;;;13.00;10.10;;;;;;;;;;6075692;23;20065;-84
2022/10/27 05:34:00;;;;;;;15.25;10.00;;;;;;;;;;6098634;23;20022;-83
2022/10/27 05:36:26;;;;;;;11.32;9.18;;;;;;;;;;6075428;23;20347;-83
2022/10/27 05:38:53;;;;;;;13.80;9.70;;;;;;;;;;6099108;23;20053;-83
2022/10/27 05:41:19;;;;;;;23.70;10.75;;;;;;;;;;6099422;23;20018;-83
2022/10/27 05:43:45;;;;;;;20.00;9.88;;;;;;;;;;6098846;23;20056;-82
2022/10/27 05:46:11;;;;;;;17.95;9.95;;;;;;;;;;6099225;23;20019;-82
2022/10/27 05:48:37;;;;;;;14.65;9.07;;;;;;;;;;6099158;23;20022;-82
2022/10/27 05:51:02;;;;;;;18.27;9.18;;;13.00;99.90;;;;;;6099147;23;20306;-82
2022/10/27 05:53:28;;;;;;;18.83;10.23;;;;;;;;;;6074503;23;20074;-82
2022/10/27 05:55:55;;;;;;;16.40;9.50;;;;;;;;;;6099411;23;20014;-83
2022/10/27 05:58:21;;;;;;;16.08;10.63;;;;;;;;;;6099062;23;20021;-84
2022/10/27 06:00:47;;;;;;;22.58;10.65;;;;;;;;;;6075214;23;20021;-83
2022/10/27 06:03:18;;;;;;;13.48;9.55;;;;;;;;;;6099094;23;20097;-83
2022/10/27 06:05:44;;;;;;;18.45;8.50;;;;;;;;;;6100486;23;20041;-83
2022/10/27 06:08:10;;;;;;;15.68;10.95;;;;;;;;;;6098759;23;20018;-84
2022/10/27 06:10:36;;;;;;;14.95;8.85;;;;;;;;;;6074054;23;20014;-83
2022/10/27 06:13:04;;;;;;;13.40;9.50;;;13.40;99.90;;;;;;6098861;23;20018;-82
2022/10/27 06:15:30;;;;;;;12.25;8.80;;;;;;;;;;6074682;23;20010;-85
2022/10/27 06:17:56;;;;;;;16.98;9.20;;;;;;;;;;6098873;23;20014;-84
2022/10/27 06:20:23;;;;;;;9.80;8.80;;;;;;;;;;6098942;23;20068;-83
2022/10/27 06:22:49;;;;;;;25.75;9.85;;;;;;;;;;6097922;23;20014;-83
2022/10/27 06:25:15;;;;;;;16.60;8.65;;;;;;;;;;6098345;23;20060;-82
2022/10/27 06:27:41;;;;;;;18.88;9.00;;;;;;;;;;6098388;23;20451;-84
2022/10/27 06:30:07;;;;;;;14.25;9.35;;;;;;;;;;6098495;23;20040;-83
2022/10/27 06:32:37;;;;;;;15.70;9.10;;;13.50;99.90;;;;;;6098144;23;20452;-83
2022/10/27 06:35:09;;;;;;;15.68;10.00;;;13.40;99.90;;;;;;6124583;23;20463;-82
2022/10/27 06:37:39;;;;;;;15.38;9.23;;;;;;;;;;6098505;23;20028;-83
2022/10/27 06:40:08;;;;;;;12.32;8.63;;;;;;;;;;6098739;23;20355;-83
2022/10/27 06:42:35;;;;;;;17.55;10.68;;;;;;;;;;6097943;23;20097;-83
2022/10/27 06:45:02;;;;;;;16.20;9.50;;;;;;;;;;6074614;23;20443;-82
2022/10/27 06:47:28;;;;;;;14.48;9.98;;;;;;;;;;6098728;23;20018;-83
2022/10/27 06:49:54;;;;;;;14.50;9.43;;;;;;;;;;6098746;23;20021;-83
2022/10/27 06:52:20;;;;;;;12.30;9.13;;;;;;;;;;6098761;23;20029;-83
2022/10/27 06:54:46;;;;;;;12.32;8.70;;;;;;;;;;6097936;23;20018;-82
2022/10/27 06:57:12;;;;;;;13.52;9.10;;;;;;;;;;6098708;23;20026;-82
2022/10/27 06:59:38;;;;;;;16.85;9.82;;;;;;;;;;6098436;23;20109;-83
2022/10/27 07:02:04;;;;;;;11.27;8.75;;;;;;;;;;6098581;23;20052;-83
2022/10/27 07:04:30;;;;;;;12.55;8.30;;;;;;;;;;6097514;23;20025;-83
2022/10/27 07:06:56;;;;;;;17.30;9.70;;;;;;;;;;6098710;23;20014;-82
2022/10/27 07:09:22;;;;;;;11.77;8.90;;;;;;;;;;6098508;23;20025;-83
2022/10/27 07:11:48;;;;;;;15.68;9.77;;;;;;;;;;6098453;23;20017;-84
2022/10/27 07:14:14;;;;;;;13.75;9.65;;;;;;;;;;6098219;23;20026;-84
2022/10/27 07:16:40;;;;;;;14.32;8.02;;;;;;;;;;6098297;23;20471;-82
2022/10/27 07:19:06;;;;;;;12.57;8.43;;;;;;;;;;6098567;23;20045;-82
2022/10/27 07:21:32;;;;;;;14.32;8.20;;;;;;;;;;6098467;23;20440;-82
2022/10/27 07:23:59;;;;;;;12.60;9.13;;;;;;;;;;6098278;23;20022;-83
2022/10/27 07:26:25;;;;;;;17.73;8.68;;;;;;;;;;6098684;23;20057;-83
2022/10/27 07:28:51;;;;;;;18.25;8.90;;;;;;;;;;6100296;23;20022;-83
2022/10/27 07:31:17;;;;;;;11.02;7.88;;;;;;;;;;6125356;23;20018;-84
2022/10/27 07:33:43;;;;;;;13.48;8.50;;;;;;;;;;6100636;23;20096;-81
2022/10/27 07:36:09;;;;;;;10.70;7.97;;;;;;;;;;6100001;23;20444;-83
2022/10/27 07:38:35;;;;;;;17.20;8.00;;;;;;;;;;6076159;23;20514;-82
2022/10/27 07:41:01;;;;;;;14.88;8.13;;;;;;;;;;6100297;23;20018;-81
2022/10/27 07:43:27;;;;;;;14.73;7.32;;;;;;;;;;6100500;23;20022;-81
2022/10/27 07:45:53;;;;;;;13.38;7.97;;;;;;;;;;6100409;23;20014;-79
2022/10/27 07:48:19;;;;;;;10.45;6.97;;;;;;;;;;6099487;23;20026;-82
2022/10/27 07:50:45;;;;;;;9.73;7.40;;;;;;;;;;6126482;23;20018;-81
2022/10/27 07:53:14;;;;;;;13.20;7.30;;;;;;;;;;6099866;23;20459;-81
2022/10/27 07:55:40;;;;;;;10.40;7.45;;;;;;;;;;6100236;23;20451;-81
2022/10/27 07:58:06;;;;;;;9.65;6.90;;;;;;;;;;6099345;23;20050;-80
2022/10/27 08:00:33;;;;;;;14.00;7.80;;;;;;;;;;6099558;23;20014;-81
2022/10/27 08:03:03;;;;;;;10.23;7.85;;;;;;;;;;6100450;23;20050;-81
2022/10/27 08:05:31;;;;;;;17.40;7.38;;;14.30;99.90;;;;;;6100230;23;20014;-80
2022/10/27 08:07:58;;;;;;;10.35;6.85;;;;;;;;;;6075610;23;20472;-80
2022/10/27 08:10:24;;;;;;;14.07;7.18;;;14.20;99.90;;;;;;6100111;23;20018;-81
2022/10/27 08:12:50;;;;;;;13.02;7.63;;;;;;;;;;6075939;23;20101;-84
2022/10/27 08:15:16;;;;;;;7.70;6.88;;;;;;;;;;6100007;23;20018;-81
2022/10/27 08:17:42;;;;;;;10.02;6.88;;;;;;;;;;6099916;23;20069;-83
2022/10/27 08:20:08;;;;;;;10.55;6.57;;;;;;;;;;6099328;23;20104;-84
2022/10/27 08:22:34;;;;;;;8.63;6.13;;;;;;;;;;6099790;23;20014;-82
2022/10/27 08:25:00;;;;;;;13.13;6.85;;;;;;;;;;6100078;23;20041;-85
2022/10/27 08:27:26;;;;;;;8.43;6.18;;;;;;;;;;6100131;23;20018;-83
2022/10/27 08:29:52;;;;;;;8.40;6.13;;;;;;;;;;6099097;23;20053;-82
2022/10/27 08:32:18;;;;;;;11.52;7.47;;;;;;;;;;6099652;23;20021;-84
2022/10/27 08:34:44;;;;;;;9.25;6.93;;;;;;;;;;6099744;23;20392;-84
2022/10/27 08:37:10;;;;;;;13.10;6.68;;;;;;;;;;6099708;23;20439;-81
2022/10/27 08:39:37;;;;;;;16.08;6.85;;;;;;;;;;6099334;23;20026;-84
2022/10/27 08:42:13;;;;;;;9.50;6.20;;;14.60;99.90;;;;;;6099578;23;20348;-84
2022/10/27 08:44:45;;;;;;;12.82;7.60;;;14.50;99.90;;;;;;6099838;23;20085;-80
2022/10/27 08:47:18;;;;;;;8.15;6.57;;;14.60;99.90;;;;;;6075599;23;20021;-84
2022/10/27 08:50:09;;;;;;;11.48;6.53;;;14.80;99.90;;;;;;6100012;23;20018;-85
2022/10/27 08:52:54;;;;;;;10.32;6.78;;;14.60;99.90;;;;;;5961088;23;20427;-81
2022/10/27 08:55:27;;;;;;;16.58;6.45;;;14.50;99.90;;;;;;5983939;23;20023;-83
2022/10/27 08:57:53;;;;;;;11.23;6.28;;;;;;;;;;5984700;23;20070;-84
2022/10/27 09:00:19;;;;;;;8.65;5.45;;;;;;;;;;5984220;23;20028;-82
2022/10/27 09:02:45;;;;;;;10.98;6.13;;;;;;;;;;6007430;23;20020;-83
2022/10/27 09:05:11;;;;;;;14.88;6.35;;;;;;;;;;5984151;23;20026;-82
2022/10/27 09:08:01;;;;;;;9.68;5.80;;;15.10;99.90;;;;;;5984448;23;20059;-85
2022/10/27 09:10:37;;;;;;;8.95;6.07;;;15.50;99.90;;;;;;5960848;23;20020;-84
2022/10/27 09:13:43;;;;;;;8.52;5.93;;;15.30;99.90;;;;;;5983886;23;20030;-83
2022/10/27 09:16:15;;;;;;;12.23;5.28;;;15.40;99.90;;;;;;5960907;23;20015;-81
2022/10/27 09:18:50;;;;;;;7.22;5.80;;;15.30;99.90;;;;;;5984274;23;20473;-85
2022/10/27 09:21:20;;;;;;;9.65;6.40;;;;;;;;;;5984142;23;20055;-85
2022/10/27 09:23:57;;;;;;;14.48;6.18;;;15.80;99.90;;;;;;5960249;23;20080;-82
2022/10/27 09:26:27;;;;;;;11.32;4.65;;;15.80;99.90;;;;;;5983862;23;20103;-83
2022/10/27 09:28:54;;;;;;;10.77;4.95;;;;;;;;;;6009018;23;20475;-83
2022/10/27 09:31:37;;;;;;;9.63;5.15;;;15.90;99.90;;;;;;6123913;23;20022;-83
2022/10/27 09:34:26;;;;;;;15.18;4.75;;;15.90;99.90;;;;;;6076431;23;20146;-83
2022/10/27 09:36:53;;;;;;;19.15;6.50;;;16.10;99.90;;;;;;6069332;23;20364;-82
2022/10/27 09:39:20;;;;;;;9.18;4.85;;;16.00;99.90;;;;;;6095973;23;20037;-82
2022/10/27 09:41:46;;;;;;;5.32;4.60;;;;;;;;;;6095873;23;20046;-80
2022/10/27 09:44:22;;;;;;;8.02;4.68;;;16.10;99.90;;;;;;6069848;23;20085;-82
2022/10/27 09:46:50;;;;;;;10.00;4.45;;;;;;;;;;6070071;23;20073;-83
2022/10/27 09:49:17;;;;;;;7.35;4.50;;;;;;;;;;6046408;23;20076;-81
2022/10/27 09:51:52;;;;;;;6.75;5.65;;;16.30;99.90;;;;;;6070255;23;20061;-81
2022/10/27 09:54:31;;;;;;;11.23;4.38;;;16.20;99.90;;;;;;6045692;23;20074;-81
2022/10/27 09:57:12;;;;;;;7.25;4.28;;;16.30;99.90;;;;;;6095709;23;20534;-81
2022/10/27 09:59:39;;;;;;;8.70;4.07;;;16.50;99.90;;;;;;6095925;23;20458;-83
2022/10/27 10:02:25;;;;;;;9.38;4.53;;;16.30;99.90;;;;;;6070092;23;20073;-82
2022/10/27 10:04:52;;;;;;;5.63;3.63;;;;;;;;;;6070279;23;20045;-81
2022/10/27 10:07:47;;;;;;;8.10;3.95;;;16.60;99.90;;;;;;6045838;23;20097;-81
2022/10/27 10:10:30;;;;;;;8.38;4.15;;;16.50;99.90;;;;;;5932563;24;20021;-82
2022/10/27 10:13:03;;;;;;;6.68;3.65;;;;;;;;;;5955992;24;20028;-81
2022/10/27 10:15:30;;;;;;;5.38;3.60;;;16.50;99.90;;;;;;5955662;24;20027;-81
2022/10/27 10:17:58;;;;;;;6.15;4.38;;;16.70;99.90;;;;;;5955204;24;20056;-82
2022/10/27 10:20:31;;;;;;;5.95;3.72;;;16.90;99.90;;;;;;5932909;24;20024;-84
2022/10/27 10:22:57;;;;;;;10.40;3.95;;;;;;;;;;5932957;24;20543;-82
2022/10/27 10:25:27;;;;;;;8.48;3.55;;;16.80;99.90;;;;;;5955474;24;20096;-83
2022/10/27 10:28:02;;;;;;;11.73;3.78;;;16.80;99.90;;;;;;5932087;23;20027;-84
2022/10/27 10:30:33;;;;;;;12.68;3.03;;;16.70;99.90;;;;;;5955613;24;20068;-84
2022/10/27 10:32:59;;;;;;;6.50;2.97;;;;;;;;;;5932590;24;20118;-82
2022/10/27 10:35:44;;;;;;;9.23;3.80;;;17.00;99.90;;;;;;5955913;24;20035;-83
2022/10/27 10:38:38;;;;;;;8.45;3.42;;;17.00;99.90;;;;;;5954735;24;20442;-82
2022/10/27 10:41:04;;;;;;;7.80;3.22;;;;;;;;;;5952145;24;20016;-83
2022/10/27 10:43:30;;;;;;;6.03;2.92;;;;;;;;;;5955733;24;20020;-82
2022/10/27 10:45:56;;;;;;;17.30;4.05;;;;;;;;;;5959335;23;20025;-83
2022/10/27 10:48:46;;;;;;;5.28;3.33;;;17.10;99.90;;;;;;6045063;23;20026;-83
2022/10/27 10:51:22;;;;;;;7.72;2.60;;;17.20;99.90;;;;;;6069461;23;20025;-84
2022/10/27 10:53:50;;;;;;;6.28;2.72;;;17.30;99.90;;;;;;6069664;23;20022;-82
2022/10/27 10:56:34;;;;;;;2.75;2.40;;;17.40;99.90;;;;;;6045737;23;20097;-81
2022/10/27 10:59:10;;;;;;;2.72;2.45;;;17.30;99.90;;;;;;6069230;23;20427;-81
2022/10/27 11:01:43;;;;;;;6.35;3.22;;;17.30;99.90;;;;;;6069286;23;20022;-82
2022/10/27 11:04:12;;;;;;;10.32;3.13;;;17.40;99.90;;;;;;6045643;23;20022;-82
2022/10/27 11:06:53;;;;;;;6.65;2.83;;;17.50;99.90;;;;;;6069607;23;20106;-81
2022/10/27 11:09:19;;;;;;;8.88;2.97;;;;;;;;;;6069223;23;20076;-82
2022/10/27 11:11:46;;;;;;;4.00;2.92;;;17.60;99.90;;;;;;6045526;23;20018;-80
2022/10/27 11:14:14;;;;;;;3.80;2.83;;;17.80;99.90;;;;;;6095516;23;20014;-82
2022/10/27 11:16:55;;;;;;;7.22;3.75;;;17.80;99.90;;;;;;6069738;23;20102;-82
2022/10/27 11:19:22;;;;;;;4.38;2.85;;;17.90;99.90;;;;;;6069297;23;20050;-82
2022/10/27 11:21:51;;;;;;;6.97;2.50;;;18.10;99.90;;;;;;6045943;23;20022;-81
2022/10/27 11:24:52;;;;;;;10.70;2.88;;;18.10;99.90;;;;;;6045174;23;20026;-80
2022/10/27 11:27:42;;;;;;;2.90;2.17;;;17.90;99.90;;;;;;6069323;23;20101;-83
2022/10/27 11:30:23;;;;;;;4.07;3.42;;;18.10;99.90;;;;;;6095256;23;20022;-83
2022/10/27 11:32:52;;;;;;;3.17;1.98;;;17.90;99.90;;;;;;6045309;23;20456;-84
2022/10/27 11:35:22;;;;;;;4.70;2.20;;;18.20;99.90;;;;;;6069751;23;20143;-81
2022/10/27 11:38:14;;;;;;;6.68;2.42;;;18.20;99.90;;;;;;6045472;23;20022;-82
2022/10/27 11:40:48;;;;;;;3.92;2.15;;;18.20;99.90;;;;;;6045142;23;20042;-83
2022/10/27 11:43:35;;;;;;;6.75;2.20;;;18.30;99.90;;;;;;6069292;23;20018;-85
2022/10/27 11:46:08;;;;;;;3.00;2.10;;;18.20;99.90;;;;;;6045495;23;20053;-82
2022/10/27 11:49:15;;;;;;;6.30;2.00;;;18.30;99.90;;;;;;6045413;23;20352;-83
2022/10/27 11:52:02;;;;;;;2.38;1.80;;;18.40;99.90;;;;;;5931428;24;20027;-82
2022/10/27 11:54:28;;;;;;;4.88;1.98;;;18.50;99.90;;;;;;5955157;24;20024;-82
2022/10/27 11:57:03;;;;;;;5.47;2.17;;;18.60;99.90;;;;;;5955053;24;20343;-82
2022/10/27 11:59:46;;;;;;;6.82;1.92;;;18.80;99.90;;;;;;5955065;24;20024;-82
2022/10/27 12:02:51;;;;;;;5.07;1.60;;;18.60;99.90;;;;;;5931791;23;20016;-82
2022/10/27 12:05:44;;;;;;;2.25;1.60;;;18.80;99.90;;;;;;5868329;24;20053;-84
2022/10/27 12:08:16;;;;;;;2.80;1.50;;;19.00;99.90;;;;;;5846303;24;20041;-83
2022/10/27 12:10:51;;;;;;;5.03;2.30;;;19.00;99.90;;;;;;5846243;24;20019;-85
2022/10/27 12:13:17;;;;;;;5.78;1.85;;;;;;;;;;5845890;24;20420;-83
2022/10/27 12:16:01;;;;;;;5.32;1.50;;;19.30;99.90;;;;;;5847635;24;20021;-83
2022/10/27 12:18:47;;;;;;;4.60;2.13;;;19.10;99.90;;;;;;5847885;24;20021;-79
2022/10/27 12:21:16;;;;;;;3.95;1.48;;;19.30;99.90;;;;;;5825669;24;20022;-82
2022/10/27 12:23:51;;;;;;;5.85;1.23;;;19.10;99.90;;;;;;5869715;24;20101;-81
2022/10/27 12:26:30;;;;;;;2.75;1.35;;;19.20;99.90;;;;;;5825085;24;20450;-80
2022/10/27 12:28:57;;;;;;;2.38;1.48;;;19.30;99.90;;;;;;5904548;24;20020;-81
2022/10/27 12:31:28;;;;;;;5.38;1.35;;;19.50;99.90;;;;;;5956770;24;20021;-80
2022/10/27 12:33:54;;;;;;;2.78;1.15;;;;;;;;;;5933240;24;20020;-80
2022/10/27 12:36:25;;;;;;;1.88;1.33;;;19.50;99.90;;;;;;5956186;24;20035;-80
2022/10/27 12:39:19;;;;;;;1.42;1.10;;;19.60;99.90;;;;;;5956583;24;20080;-80
2022/10/27 12:41:50;;;;;;;9.60;3.05;;;19.50;99.90;;;;;;5961723;23;20027;-81
2022/10/27 12:44:43;;;;;;;4.90;1.42;;;19.50;99.90;;;;;;6046494;23;20057;-80
2022/10/27 12:47:34;;;;;;;6.70;1.60;;;19.40;99.90;;;;;;6070796;23;20410;-80
2022/10/27 12:50:06;;;;;;;2.67;1.10;;;19.10;99.90;;;;;;6071077;23;20030;-83
2022/10/27 12:52:38;;;;;;;3.28;1.35;;;19.60;99.90;;;;;;6071036;23;20094;-82
2022/10/27 12:55:04;;;;;;;5.95;1.30;;;;;;;;;;6095691;23;20046;-79
2022/10/27 12:57:51;;;;;;;4.88;1.60;;;19.50;99.90;;;;;;6096166;23;20019;-80
2022/10/27 13:00:22;;;;;;;4.38;1.52;;;19.60;99.90;;;;;;6070579;23;20022;-81
2022/10/27 13:03:18;;;;;;;2.70;1.48;;;19.60;99.90;;;;;;6070691;23;20805;-80
2022/10/27 13:06:11;;;;;;;3.53;1.30;;;19.50;99.90;;;;;;6069605;23;20022;-80
2022/10/27 13:09:10;;;;;;;2.25;1.40;;;19.60;99.90;;;;;;6071199;23;20023;-80
2022/10/27 13:12:18;;;;;;;1.60;1.35;;;19.60;99.90;;;;;;6046701;23;20073;-80
2022/10/27 13:15:05;;;;;;;1.17;1.05;;;19.70;99.90;;;;;;5979711;24;20024;-81
2022/10/27 13:17:31;;;;;;;5.07;1.23;;;;;;;;;;5955603;24;20020;-79
2022/10/27 13:20:19;;;;;;;2.28;1.60;;;19.40;99.90;;;;;;5933255;24;20024;-83
2022/10/27 13:22:51;;;;;;;5.40;1.58;;;19.50;99.90;;;;;;5956163;24;20020;-86
2022/10/27 13:25:59;;;;;;;3.10;1.40;;;19.50;99.90;;;;;;5932813;24;20088;-83
2022/10/27 13:28:35;;;;;;;2.83;1.38;;;19.50;99.90;;;;;;5954998;24;20023;-83
2022/10/27 13:31:11;;;;;;;3.08;1.23;;;19.70;99.90;;;;;;5956047;24;20031;-83
2022/10/27 13:33:41;;;;;;;3.45;1.40;;;19.60;99.90;;;;;;5956145;23;20493;-84
2022/10/27 13:36:23;;;;;;;3.92;1.20;;;19.70;99.90;;;;;;5933109;24;20035;-85
2022/10/27 13:39:09;;;;;;;3.88;1.60;;;19.70;99.90;;;;;;5932450;23;20107;-83
2022/10/27 13:42:04;;;;;;;1.80;1.63;;;19.50;99.90;;;;;;5933226;24;20016;-81
2022/10/27 13:44:37;;;;;;;2.65;1.30;;;19.20;99.90;;;;;;5933008;24;20060;-83
2022/10/27 13:47:03;;;;;;;5.07;1.40;;;19.60;99.90;;;;;;5955787;24;20037;-83
2022/10/27 13:49:40;;;;;;;2.88;1.33;;;19.50;99.90;;;;;;5932860;24;20020;-82
2022/10/27 13:52:18;;;;;;;3.90;1.23;;;19.50;99.90;;;;;;6030050;23;20084;-82
2022/10/27 13:54:54;;;;;;;3.70;1.20;;;19.30;99.90;;;;;;6046561;23;20018;-83
2022/10/27 13:57:58;;;;;;;1.98;1.20;;;19.30;99.90;;;;;;6069685;23;20018;-83
2022/10/27 14:00:50;;;;;;;8.27;1.63;;;19.30;99.90;;;;;;6070369;23;20018;-80
2022/10/27 14:03:31;;;;;;;4.40;1.70;;;19.10;99.90;;;;;;6045852;23;20333;-79
2022/10/27 14:05:57;;;;;;;5.07;1.10;;;;;;;;;;6096000;23;20018;-83
2022/10/27 14:08:26;;;;;;;5.72;1.90;;;19.00;99.90;;;;;;6095679;23;20142;-83
2022/10/27 14:10:53;;;;;;;4.65;1.95;;;19.00;99.90;;;;;;6069868;23;20022;-85